createdAt,value
2018-05-25T00:01:05.795Z,56.90
2018-05-25T00:03:09.740Z,57.20
2018-05-25T00:05:13.683Z,56.90
2018-05-25T00:07:16.848Z,56.80
2018-05-25T00:09:20.029Z,56.90
2018-05-25T00:11:23.224Z,56.80
2018-05-25T00:13:26.375Z,56.80
2018-05-25T00:15:29.562Z,56.80
2018-05-25T00:17:32.817Z,56.80
2018-05-25T00:19:36.752Z,56.90
2018-05-25T00:21:39.922Z,56.70
2018-05-25T00:23:43.067Z,56.70
2018-05-25T00:25:46.238Z,56.70
2018-05-25T00:27:50.905Z,56.70
2018-05-25T00:29:54.935Z,56.60
2018-05-25T00:31:58.891Z,56.60
2018-05-25T00:34:02.047Z,56.60
2018-05-25T00:36:05.240Z,56.60
2018-05-25T00:38:08.395Z,56.60
2018-05-25T00:40:11.573Z,56.60
2018-05-25T00:42:14.727Z,56.60
2018-05-25T00:44:17.883Z,56.60
2018-05-25T00:46:21.061Z,56.60
2018-05-25T00:48:24.207Z,57.10
2018-05-25T00:50:27.445Z,57.40
2018-05-25T00:52:30.564Z,57.30
2018-05-25T00:54:33.708Z,57.10
2018-05-25T00:56:36.922Z,57.00
2018-05-25T00:58:40.067Z,57.00
2018-05-25T01:00:44.005Z,57.00
2018-05-25T01:02:48.147Z,57.00
2018-05-25T01:04:51.469Z,57.00
2018-05-25T01:06:55.171Z,57.00
2018-05-25T01:08:59.417Z,57.50
2018-05-25T01:11:02.830Z,57.00
2018-05-25T01:13:06.990Z,57.00
2018-05-25T01:15:11.416Z,57.00
2018-05-25T01:17:15.746Z,57.00
2018-05-25T01:19:19.026Z,57.10
2018-05-25T01:21:23.300Z,57.10
2018-05-25T01:23:27.731Z,57.00
2018-05-25T01:25:32.180Z,57.00
2018-05-25T01:27:36.479Z,57.00
2018-05-25T01:29:40.837Z,57.00
2018-05-25T01:31:45.331Z,57.00
2018-05-25T01:33:49.602Z,57.10
2018-05-25T01:35:54.052Z,57.20
2018-05-25T01:37:58.388Z,57.20
2018-05-25T01:40:02.451Z,57.40
2018-05-25T01:42:06.400Z,57.50
2018-05-25T01:44:10.551Z,57.40
2018-05-25T01:46:13.971Z,57.30
2018-05-25T01:48:18.216Z,57.30
2018-05-25T01:50:21.680Z,57.30
2018-05-25T01:52:26.547Z,57.30
2018-05-25T01:54:29.853Z,57.30
2018-05-25T01:56:33.030Z,57.40
2018-05-25T01:58:37.210Z,57.40
2018-05-25T02:00:40.595Z,58.10
2018-05-25T02:02:44.530Z,58.20
2018-05-25T02:04:47.675Z,58.10
2018-05-25T02:06:50.846Z,58.00
2018-05-25T02:08:53.987Z,58.00
2018-05-25T02:10:57.136Z,58.00
2018-05-25T02:13:01.076Z,58.60
2018-05-25T02:15:05.003Z,58.00
2018-05-25T02:17:08.955Z,58.00
2018-05-25T02:19:12.100Z,57.90
2018-05-25T02:21:15.279Z,58.00
2018-05-25T02:23:18.442Z,57.90
2018-05-25T02:25:22.400Z,57.90
2018-05-25T02:27:25.596Z,57.80
2018-05-25T02:29:28.759Z,57.80
2018-05-25T02:31:31.911Z,57.80
2018-05-25T02:33:35.088Z,57.80
2018-05-25T02:35:39.007Z,57.90
2018-05-25T02:37:42.178Z,58.00
2018-05-25T02:39:45.340Z,58.40
2018-05-25T02:41:49.269Z,58.30
2018-05-25T02:43:53.282Z,58.20
2018-05-25T02:45:56.430Z,58.20
2018-05-25T02:47:59.632Z,58.30
2018-05-25T02:50:02.792Z,58.30
2018-05-25T02:52:07.495Z,58.40
2018-05-25T02:54:10.662Z,58.30
2018-05-25T02:56:14.591Z,59.10
2018-05-25T02:58:18.546Z,58.40
2018-05-25T03:00:21.696Z,58.20
2018-05-25T03:02:24.876Z,58.10
2018-05-25T03:04:28.027Z,58.30
2018-05-25T03:06:31.174Z,58.30
2018-05-25T03:08:34.472Z,58.30
2018-05-25T03:10:38.402Z,58.30
2018-05-25T03:12:42.366Z,58.10
2018-05-25T03:14:45.523Z,58.10
2018-05-25T03:16:49.479Z,58.20
2018-05-25T03:18:52.647Z,58.10
2018-05-25T03:20:55.798Z,58.10
2018-05-25T03:22:58.991Z,58.10
2018-05-25T03:25:02.161Z,58.80
2018-05-25T03:27:06.098Z,58.70
2018-05-25T03:29:09.272Z,58.70
2018-05-25T03:31:12.450Z,58.50
2018-05-25T03:33:15.623Z,58.50
2018-05-25T03:35:18.784Z,58.50
2018-05-25T03:37:21.967Z,58.50
2018-05-25T03:39:25.176Z,58.50
2018-05-25T03:41:28.322Z,58.40
2018-05-25T03:43:31.499Z,58.50
2018-05-25T03:45:34.663Z,58.40
2018-05-25T03:47:37.850Z,58.50
2018-05-25T03:49:41.052Z,58.40
2018-05-25T03:51:44.205Z,58.30
2018-05-25T03:53:48.157Z,58.40
2018-05-25T03:55:51.299Z,58.40
2018-05-25T03:57:55.699Z,58.30
2018-05-25T04:00:00.031Z,58.30
2018-05-25T04:02:03.377Z,58.20
2018-05-25T04:04:06.849Z,58.30
2018-05-25T04:06:10.765Z,58.40
2018-05-25T04:08:15.680Z,58.40
2018-05-25T04:10:18.916Z,58.40
2018-05-25T04:12:22.957Z,58.50
2018-05-25T04:14:27.967Z,58.50
2018-05-25T04:16:31.548Z,58.50
2018-05-25T04:18:36.101Z,58.50
2018-05-25T04:20:39.395Z,58.40
2018-05-25T04:22:43.565Z,58.50
2018-05-25T04:24:47.495Z,58.50
2018-05-25T04:26:51.587Z,58.40
2018-05-25T04:28:55.202Z,58.50
2018-05-25T04:30:58.371Z,58.50
2018-05-25T04:33:02.291Z,58.50
2018-05-25T04:35:06.522Z,58.40
2018-05-25T04:37:09.680Z,58.50
2018-05-25T04:39:12.871Z,58.50
2018-05-25T04:41:16.023Z,58.50
2018-05-25T04:43:19.216Z,58.40
2018-05-25T04:45:22.367Z,58.50
2018-05-25T04:47:25.519Z,58.50
2018-05-25T04:49:28.819Z,58.50
2018-05-25T04:51:32.729Z,58.60
2018-05-25T04:53:36.643Z,59.10
2018-05-25T04:55:40.601Z,59.00
2018-05-25T04:57:43.759Z,59.00
2018-05-25T04:59:46.943Z,59.00
2018-05-25T05:01:50.095Z,58.90
2018-05-25T05:03:54.007Z,58.90
2018-05-25T05:05:57.945Z,59.00
2018-05-25T05:08:01.859Z,60.40
2018-05-25T05:10:05.048Z,59.80
2018-05-25T05:12:08.200Z,59.90
2018-05-25T05:14:12.154Z,60.90
2018-05-25T05:16:16.099Z,61.10
2018-05-25T05:18:19.262Z,61.00
2018-05-25T05:20:23.258Z,61.30
2018-05-25T05:22:26.404Z,61.20
2018-05-25T05:24:29.575Z,61.20
2018-05-25T05:26:33.502Z,60.90
2018-05-25T05:28:36.660Z,60.90
2018-05-25T05:30:39.839Z,60.70
2018-05-25T05:32:43.763Z,60.80
2018-05-25T05:34:47.702Z,60.60
2018-05-25T05:36:50.868Z,60.60
2018-05-25T05:38:54.049Z,60.40
2018-05-25T05:40:57.250Z,60.50
2018-05-25T05:43:00.425Z,60.40
2018-05-25T05:45:04.375Z,60.40
2018-05-25T05:47:07.546Z,60.40
2018-05-25T05:49:11.488Z,61.20
2018-05-25T05:51:15.423Z,61.80
2018-05-25T05:53:18.599Z,61.80
2018-05-25T05:55:21.780Z,62.70
2018-05-25T05:57:25.185Z,62.90
2018-05-25T05:59:28.505Z,62.70
2018-05-25T06:01:31.717Z,62.60
2018-05-25T06:03:34.896Z,62.50
2018-05-25T06:05:38.071Z,62.80
2018-05-25T06:07:42.008Z,64.30
2018-05-25T06:09:45.944Z,64.40
2018-05-25T06:11:49.119Z,64.50
2018-05-25T06:13:53.791Z,64.40
2018-05-25T06:15:56.971Z,64.40
2018-05-25T06:18:00.897Z,64.00
2018-05-25T06:20:04.853Z,64.00
2018-05-25T06:22:08.007Z,63.50
2018-05-25T06:24:11.216Z,63.20
2018-05-25T06:26:15.910Z,63.60
2018-05-25T06:28:19.852Z,63.80
2018-05-25T06:30:23.139Z,63.80
2018-05-25T06:32:27.074Z,63.70
2018-05-25T06:34:30.231Z,63.60
2018-05-25T06:36:33.435Z,63.30
2018-05-25T06:38:36.585Z,63.30
2018-05-25T06:40:40.519Z,63.40
2018-05-25T06:42:43.730Z,63.40
2018-05-25T06:44:46.915Z,63.90
2018-05-25T06:46:50.868Z,65.70
2018-05-25T06:48:54.015Z,64.90
2018-05-25T06:50:57.206Z,64.60
2018-05-25T06:53:00.353Z,64.70
2018-05-25T06:55:04.272Z,64.70
2018-05-25T06:57:07.459Z,64.70
2018-05-25T06:59:10.608Z,64.60
2018-05-25T07:01:13.782Z,64.40
2018-05-25T07:03:17.041Z,64.20
2018-05-25T07:05:20.965Z,63.90
2018-05-25T07:07:24.905Z,63.70
2018-05-25T07:09:28.079Z,63.60
2018-05-25T07:11:31.255Z,63.50
2018-05-25T07:13:34.467Z,63.30
2018-05-25T07:15:37.654Z,63.00
2018-05-25T07:17:40.860Z,63.10
2018-05-25T07:19:44.044Z,62.90
2018-05-25T07:21:47.992Z,63.20
2018-05-25T07:23:51.157Z,63.30
2018-05-25T07:25:54.354Z,63.20
2018-05-25T07:27:57.533Z,63.10
2018-05-25T07:30:00.686Z,62.90
2018-05-25T07:32:03.869Z,62.70
2018-05-25T07:34:07.048Z,62.60
2018-05-25T07:36:10.263Z,62.40
2018-05-25T07:38:13.546Z,62.30
2018-05-25T07:40:17.467Z,62.30
2018-05-25T07:42:21.510Z,62.50
2018-05-25T07:44:24.660Z,62.50
2018-05-25T07:46:27.831Z,62.50
2018-05-25T07:48:30.975Z,62.30
2018-05-25T07:50:34.125Z,62.00
2018-05-25T07:52:38.072Z,61.80
2018-05-25T07:54:41.242Z,61.80
2018-05-25T07:56:45.217Z,61.70
2018-05-25T07:58:48.368Z,61.70
2018-05-25T08:00:51.531Z,61.40
2018-05-25T08:02:54.719Z,61.40
2018-05-25T08:04:57.867Z,61.30
2018-05-25T08:07:01.040Z,61.30
2018-05-25T08:09:04.203Z,61.10
2018-05-25T08:11:08.172Z,61.10
2018-05-25T08:13:11.379Z,61.10
2018-05-25T08:15:14.531Z,61.10
2018-05-25T08:17:17.714Z,61.00
2018-05-25T08:19:20.868Z,60.90
2018-05-25T08:21:24.047Z,60.90
2018-05-25T08:23:27.190Z,60.70
2018-05-25T08:25:30.354Z,60.70
2018-05-25T08:27:33.532Z,60.70
2018-05-25T08:29:36.901Z,60.40
2018-05-25T08:31:40.100Z,60.30
2018-05-25T08:33:43.610Z,60.20
2018-05-25T08:35:46.839Z,61.00
2018-05-25T08:37:50.777Z,60.20
2018-05-25T08:39:53.942Z,60.30
2018-05-25T08:41:57.216Z,60.10
2018-05-25T08:44:01.143Z,59.90
2018-05-25T08:46:05.065Z,59.90
2018-05-25T08:48:09.008Z,59.80
2018-05-25T08:50:12.189Z,59.80
2018-05-25T08:52:16.138Z,60.00
2018-05-25T08:54:19.333Z,60.00
2018-05-25T08:56:23.253Z,60.10
2018-05-25T08:58:27.211Z,59.90
2018-05-25T09:00:30.355Z,59.90
2018-05-25T09:02:33.526Z,60.10
2018-05-25T09:04:36.687Z,60.10
2018-05-25T09:06:40.619Z,59.80
2018-05-25T09:08:43.843Z,59.70
2018-05-25T09:10:47.768Z,59.80
2018-05-25T09:12:51.700Z,59.80
2018-05-25T09:14:55.629Z,59.80
2018-05-25T09:16:59.572Z,59.80
2018-05-25T09:19:02.748Z,59.80
2018-05-25T09:21:06.785Z,59.80
2018-05-25T09:23:10.744Z,59.80
2018-05-25T09:25:13.928Z,59.80
2018-05-25T09:27:17.080Z,59.90
2018-05-25T09:29:20.273Z,59.80
2018-05-25T09:31:23.471Z,59.90
2018-05-25T09:33:26.753Z,59.90
2018-05-25T09:35:30.665Z,60.00
2018-05-25T09:37:33.841Z,59.90
2018-05-25T09:39:37.098Z,60.00
2018-05-25T09:41:41.023Z,60.10
2018-05-25T09:43:44.963Z,60.10
2018-05-25T09:45:48.133Z,60.10
2018-05-25T09:47:51.335Z,60.00
2018-05-25T09:49:54.575Z,60.20
2018-05-25T09:51:58.489Z,59.90
2018-05-25T09:54:01.681Z,59.80
2018-05-25T09:56:04.897Z,59.90
2018-05-25T09:58:08.042Z,59.90
2018-05-25T10:00:11.203Z,60.10
2018-05-25T10:02:14.366Z,60.00
2018-05-25T10:04:17.544Z,60.20
2018-05-25T10:06:21.463Z,59.70
2018-05-25T10:08:24.633Z,59.70
2018-05-25T10:10:27.896Z,59.90
2018-05-25T10:12:31.856Z,59.80
2018-05-25T10:14:35.058Z,59.80
2018-05-25T10:16:38.228Z,59.40
2018-05-25T10:18:42.166Z,60.00
2018-05-25T10:20:46.085Z,59.40
2018-05-25T10:22:50.040Z,59.30
2018-05-25T10:24:53.224Z,59.30
2018-05-25T10:26:57.155Z,59.10
2018-05-25T10:29:01.109Z,59.20
2018-05-25T10:31:04.269Z,59.20
2018-05-25T10:33:07.422Z,59.30
2018-05-25T10:35:10.724Z,59.30
2018-05-25T10:37:14.638Z,58.80
2018-05-25T10:39:17.814Z,58.80
2018-05-25T10:41:20.967Z,58.90
2018-05-25T10:43:24.177Z,58.70
2018-05-25T10:45:27.355Z,58.50
2018-05-25T10:47:31.296Z,58.70
2018-05-25T10:49:34.489Z,58.60
2018-05-25T10:51:38.429Z,59.00
2018-05-25T10:53:41.610Z,58.90
2018-05-25T10:55:45.558Z,59.20
2018-05-25T10:57:49.475Z,58.80
2018-05-25T10:59:53.414Z,58.70
2018-05-25T11:01:57.347Z,58.50
2018-05-25T11:04:00.636Z,58.50
2018-05-25T11:06:04.673Z,58.20
2018-05-25T11:08:08.651Z,58.20
2018-05-25T11:10:11.840Z,58.10
2018-05-25T11:12:14.988Z,58.00
2018-05-25T11:14:18.163Z,57.90
2018-05-25T11:16:21.320Z,57.80
2018-05-25T11:18:25.310Z,57.90
2018-05-25T11:20:28.578Z,57.50
2018-05-25T11:22:31.736Z,57.50
2018-05-25T11:24:34.910Z,57.20
2018-05-25T11:26:38.194Z,57.10
2018-05-25T11:28:42.119Z,56.80
2018-05-25T11:30:46.068Z,56.70
2018-05-25T11:32:49.223Z,56.70
2018-05-25T11:34:52.404Z,56.70
2018-05-25T11:36:55.554Z,56.70
2018-05-25T11:38:58.706Z,56.70
2018-05-25T11:41:01.898Z,57.20
2018-05-25T11:43:05.055Z,56.70
2018-05-25T11:45:08.222Z,56.80
2018-05-25T11:47:11.387Z,56.80
2018-05-25T11:49:14.560Z,56.60
2018-05-25T11:51:17.752Z,56.50
2018-05-25T11:53:20.910Z,56.30
2018-05-25T11:55:24.103Z,56.00
2018-05-25T11:57:27.259Z,56.10
2018-05-25T11:59:31.218Z,56.20
2018-05-25T12:01:34.395Z,56.10
2018-05-25T12:03:37.631Z,56.10
2018-05-25T12:05:40.814Z,56.30
2018-05-25T12:07:44.731Z,56.20
2018-05-25T12:09:48.678Z,56.00
2018-05-25T12:11:51.864Z,56.60
2018-05-25T12:13:55.855Z,56.40
2018-05-25T12:15:59.040Z,56.40
2018-05-25T12:18:02.208Z,56.50
2018-05-25T12:20:06.160Z,57.20
2018-05-25T12:22:09.317Z,57.20
2018-05-25T12:24:12.495Z,57.10
2018-05-25T12:26:15.832Z,57.50
2018-05-25T12:28:18.990Z,57.80
2018-05-25T12:30:22.170Z,58.20
2018-05-25T12:32:26.096Z,58.40
2018-05-25T12:34:30.031Z,58.80
2018-05-25T12:36:33.983Z,58.90
2018-05-25T12:38:37.145Z,58.90
2018-05-25T12:40:40.378Z,58.90
2018-05-25T12:42:44.304Z,59.00
2018-05-25T12:44:47.484Z,59.00
2018-05-25T12:46:50.727Z,58.70
2018-05-25T12:48:54.746Z,58.30
2018-05-25T12:50:57.949Z,58.30
2018-05-25T12:53:01.879Z,58.60
2018-05-25T12:55:05.066Z,58.50
2018-05-25T12:57:08.250Z,58.70
2018-05-25T12:59:11.403Z,58.60
2018-05-25T13:01:15.346Z,58.40
2018-05-25T13:03:18.501Z,58.30
2018-05-25T13:05:21.676Z,58.40
2018-05-25T13:07:24.823Z,58.50
2018-05-25T13:09:27.975Z,58.40
2018-05-25T13:11:31.147Z,57.90
2018-05-25T13:13:34.304Z,57.50
2018-05-25T13:15:37.475Z,57.50
2018-05-25T13:17:40.632Z,57.50
2018-05-25T13:19:43.804Z,57.00
2018-05-25T13:21:47.766Z,57.20
2018-05-25T13:23:50.976Z,57.20
2018-05-25T13:25:54.160Z,57.20
2018-05-25T13:27:57.307Z,57.00
2018-05-25T13:30:00.486Z,56.40
2018-05-25T13:32:04.719Z,56.10
2018-05-25T13:34:07.863Z,55.50
2018-05-25T13:36:11.052Z,54.80
2018-05-25T13:38:14.214Z,54.60
2018-05-25T13:40:18.146Z,54.50
2018-05-25T13:42:22.092Z,54.70
2018-05-25T13:44:25.276Z,54.60
2018-05-25T13:46:29.218Z,54.30
2018-05-25T13:48:32.364Z,54.20
2018-05-25T13:50:35.611Z,54.50
2018-05-25T13:52:39.546Z,54.50
2018-05-25T13:54:43.476Z,54.30
2018-05-25T13:56:46.666Z,54.30
2018-05-25T13:58:49.834Z,54.10
2018-05-25T14:00:53.024Z,53.90
2018-05-25T14:02:56.268Z,53.70
2018-05-25T14:04:59.519Z,53.90
2018-05-25T14:07:03.469Z,54.30
2018-05-25T14:09:06.619Z,54.30
2018-05-25T14:11:09.825Z,54.20
2018-05-25T14:13:13.770Z,54.50
2018-05-25T14:15:16.916Z,54.50
2018-05-25T14:17:20.107Z,55.00
2018-05-25T14:19:24.073Z,54.50
2018-05-25T14:21:27.257Z,54.40
2018-05-25T14:25:47.100Z,54.60
2018-05-25T14:27:50.283Z,54.60
2018-05-25T14:29:53.439Z,54.80
2018-05-25T14:31:56.614Z,54.80
2018-05-25T14:33:59.788Z,54.60
2018-05-25T14:36:03.706Z,54.30
2018-05-25T14:38:06.892Z,54.20
2018-05-25T14:40:10.043Z,54.20
2018-05-25T14:42:13.223Z,53.70
2018-05-25T14:44:16.380Z,53.50
2018-05-25T14:46:19.535Z,53.60
2018-05-25T14:48:22.720Z,53.60
2018-05-25T14:50:25.878Z,53.00
2018-05-25T14:52:29.843Z,53.00
2018-05-25T14:54:33.012Z,52.90
2018-05-25T14:56:36.996Z,53.10
2018-05-25T14:58:40.918Z,53.10
2018-05-25T15:00:44.116Z,53.00
2018-05-25T15:02:47.290Z,53.10
2018-05-25T15:04:50.446Z,52.70
2018-05-25T15:06:53.631Z,53.10
2018-05-25T15:08:56.822Z,53.00
2018-05-25T15:11:00.117Z,53.00
2018-05-25T15:13:04.073Z,52.40
2018-05-25T15:15:07.227Z,52.30
2018-05-25T15:17:10.461Z,52.40
2018-05-25T15:19:14.379Z,52.10
2018-05-25T15:21:18.299Z,51.60
2018-05-25T15:23:22.263Z,51.30
2018-05-25T15:25:25.458Z,51.20
2018-05-25T15:27:28.720Z,51.00
2018-05-25T15:29:31.926Z,51.30
2018-05-25T15:31:35.050Z,51.00
2018-05-25T15:33:38.332Z,51.10
2018-05-25T15:35:41.521Z,50.90
2018-05-25T15:37:44.706Z,50.20
2018-05-25T15:39:47.865Z,50.10
2018-05-25T15:41:51.023Z,50.20
2018-05-25T15:43:54.199Z,50.10
2018-05-25T15:45:57.363Z,50.10
2018-05-25T15:48:00.540Z,50.20
2018-05-25T15:50:04.471Z,49.90
2018-05-25T15:52:08.653Z,49.90
2018-05-25T15:54:11.845Z,49.80
2018-05-25T15:56:15.004Z,49.80
2018-05-25T15:58:18.963Z,50.00
2018-05-25T16:00:22.146Z,49.90
2018-05-25T16:02:26.164Z,50.00
2018-05-25T16:04:29.262Z,50.50
2018-05-25T16:06:32.426Z,50.10
2018-05-25T16:08:35.621Z,49.70
2018-05-25T16:10:38.789Z,49.80
2018-05-25T16:12:41.976Z,50.00
2018-05-25T16:14:45.131Z,50.20
2018-05-25T16:16:48.302Z,50.20
2018-05-25T16:18:51.488Z,50.00
2018-05-25T16:20:54.640Z,50.10
2018-05-25T16:22:58.583Z,50.00
2018-05-25T16:25:01.734Z,49.90
2018-05-25T16:27:04.893Z,50.00
2018-05-25T16:29:09.031Z,50.10
2018-05-25T16:31:12.815Z,50.10
2018-05-25T16:33:15.966Z,50.20
2018-05-25T16:35:19.145Z,49.80
2018-05-25T16:37:22.308Z,50.00
2018-05-25T16:39:25.486Z,51.00
2018-05-25T16:41:28.656Z,50.50
2018-05-25T16:43:31.848Z,50.60
2018-05-25T16:45:34.997Z,50.60
2018-05-25T16:47:38.947Z,51.00
2018-05-25T16:49:42.142Z,50.90
2018-05-25T16:51:45.303Z,51.70
2018-05-25T16:53:48.475Z,52.00
2018-05-25T16:55:51.641Z,51.50
2018-05-25T16:57:55.603Z,52.00
2018-05-25T16:59:58.752Z,52.10
2018-05-25T17:02:01.915Z,51.70
2018-05-25T17:04:05.088Z,51.50
2018-05-25T17:06:08.239Z,51.00
2018-05-25T17:08:11.414Z,51.20
2018-05-25T17:10:15.333Z,51.30
2018-05-25T17:12:19.265Z,51.40
2018-05-25T17:14:23.235Z,51.50
2018-05-25T17:16:26.396Z,51.50
2018-05-25T17:18:30.334Z,52.00
2018-05-25T17:20:34.271Z,52.10
2018-05-25T17:22:37.501Z,52.00
2018-05-25T17:24:40.679Z,52.10
2018-05-25T17:26:44.590Z,51.60
2018-05-25T17:28:48.551Z,52.30
2018-05-25T17:30:51.703Z,51.70
2018-05-25T17:32:54.887Z,51.70
2018-05-25T17:34:58.823Z,51.80
2018-05-25T17:37:01.981Z,52.00
2018-05-25T17:39:05.168Z,52.00
2018-05-25T17:41:08.329Z,52.40
2018-05-25T17:43:11.504Z,52.40
2018-05-25T17:45:14.675Z,52.40
2018-05-25T17:47:17.832Z,52.30
2018-05-25T17:49:21.045Z,52.30
2018-05-25T17:51:24.231Z,52.30
2018-05-25T17:53:28.187Z,52.40
2018-05-25T17:55:31.354Z,52.30
2018-05-25T17:57:34.517Z,52.30
2018-05-25T17:59:37.690Z,52.30
2018-05-25T18:01:41.640Z,52.30
2018-05-25T18:03:44.840Z,52.30
2018-05-25T18:05:48.063Z,52.30
2018-05-25T18:07:51.205Z,52.30
2018-05-25T18:09:54.395Z,52.50
2018-05-25T18:11:57.562Z,52.60
2018-05-25T18:14:01.512Z,52.60
2018-05-25T18:16:04.659Z,52.60
2018-05-25T18:18:07.846Z,52.70
2018-05-25T18:20:11.075Z,52.70
2018-05-25T18:22:14.240Z,52.80
2018-05-25T18:24:17.437Z,52.90
2018-05-25T18:26:20.654Z,52.90
2018-05-25T18:28:23.843Z,52.80
2018-05-25T18:30:27.816Z,52.90
2018-05-25T18:32:31.021Z,52.90
2018-05-25T18:34:34.207Z,52.90
2018-05-25T18:36:37.363Z,52.90
2018-05-25T18:38:40.546Z,52.80
2018-05-25T18:40:43.696Z,52.80
2018-05-25T18:42:46.840Z,52.80
2018-05-25T18:44:50.029Z,53.00
2018-05-25T18:46:53.959Z,52.80
2018-05-25T18:48:57.921Z,52.80
2018-05-25T18:51:01.074Z,52.80
2018-05-25T18:53:05.000Z,53.20
2018-05-25T18:55:08.182Z,52.80
2018-05-25T18:57:11.340Z,53.50
2018-05-25T18:59:14.532Z,52.80
2018-05-25T19:01:18.463Z,52.90
2018-05-25T19:03:22.970Z,52.80
2018-05-25T19:05:26.159Z,52.70
2018-05-25T19:07:29.339Z,52.80
2018-05-25T19:09:32.514Z,52.80
2018-05-25T19:11:35.686Z,52.90
2018-05-25T19:13:38.835Z,52.90
2018-05-25T19:15:42.780Z,52.90
2018-05-25T19:17:45.960Z,52.90
2018-05-25T19:19:49.182Z,52.90
2018-05-25T19:21:52.393Z,53.30
2018-05-25T19:23:56.384Z,52.90
2018-05-25T19:25:59.575Z,52.90
2018-05-25T19:28:02.756Z,52.90
2018-05-25T19:30:06.492Z,52.90
2018-05-25T19:32:09.697Z,52.80
2018-05-25T19:34:12.930Z,52.90
2018-05-25T19:36:16.129Z,52.80
2018-05-25T19:38:19.329Z,52.90
2018-05-25T19:40:22.525Z,52.90
2018-05-25T19:42:25.778Z,52.80
2018-05-25T19:44:28.964Z,52.80
2018-05-25T19:46:32.147Z,53.00
2018-05-25T19:48:35.326Z,53.00
2018-05-25T19:50:38.550Z,53.10
2018-05-25T19:52:42.470Z,53.10
2018-05-25T19:54:46.420Z,53.10
2018-05-25T19:56:49.567Z,53.10
2018-05-25T19:58:52.746Z,53.10
2018-05-25T20:00:55.928Z,53.10
2018-05-25T20:02:59.944Z,53.10
2018-05-25T20:05:03.062Z,53.10
2018-05-25T20:07:06.991Z,53.10
2018-05-25T20:09:10.957Z,53.70
2018-05-25T20:11:14.136Z,53.10
2018-05-25T20:13:17.297Z,53.10
2018-05-25T20:15:21.987Z,53.20
2018-05-25T20:17:25.127Z,53.20
2018-05-25T20:19:28.312Z,53.20
2018-05-25T20:21:32.478Z,53.10
2018-05-25T20:23:35.791Z,53.20
2018-05-25T20:25:38.963Z,53.20
2018-05-25T20:27:42.128Z,53.20
2018-05-25T20:29:45.270Z,53.20
2018-05-25T20:31:48.454Z,53.20
2018-05-25T20:33:52.396Z,53.30
2018-05-25T20:35:55.584Z,53.30
2018-05-25T20:37:59.507Z,53.50
2018-05-25T20:40:02.684Z,53.30
2018-05-25T20:42:05.860Z,53.40
2018-05-25T20:44:09.006Z,53.40
2018-05-25T20:46:12.196Z,53.50
2018-05-25T20:48:15.356Z,53.50
2018-05-25T20:50:19.323Z,53.60
2018-05-25T20:52:22.484Z,53.60
2018-05-25T20:54:25.663Z,53.60
2018-05-25T20:56:28.843Z,53.60
2018-05-25T20:58:31.996Z,53.60
2018-05-25T21:00:35.793Z,53.60
2018-05-25T21:02:39.156Z,53.60
2018-05-25T21:04:43.120Z,53.60
2018-05-25T21:06:46.296Z,53.50
2018-05-25T21:08:49.474Z,53.60
2018-05-25T21:10:54.157Z,53.60
2018-05-25T21:12:57.318Z,53.50
2018-05-25T21:15:01.242Z,53.30
2018-05-25T21:17:04.446Z,53.60
2018-05-25T21:19:08.285Z,53.60
2018-05-25T21:21:11.634Z,53.60
2018-05-25T21:23:14.791Z,53.70
2018-05-25T21:25:17.962Z,53.70
2018-05-25T21:27:21.167Z,53.80
2018-05-25T21:29:24.378Z,53.80
2018-05-25T21:31:27.565Z,53.80
2018-05-25T21:33:31.491Z,53.90
2018-05-25T21:35:34.711Z,53.80
2018-05-25T21:37:37.908Z,53.80
2018-05-25T21:39:41.840Z,53.90
2018-05-25T21:41:45.774Z,53.90
2018-05-25T21:43:48.930Z,53.90
2018-05-25T21:45:52.104Z,53.90
2018-05-25T21:47:55.259Z,54.30
2018-05-25T21:49:58.418Z,54.40
2018-05-25T21:52:01.602Z,54.40
2018-05-25T21:54:05.530Z,54.30
2018-05-25T21:56:09.478Z,54.30
2018-05-25T21:58:12.637Z,54.30
2018-05-25T22:00:15.795Z,54.20
2018-05-25T22:02:18.983Z,54.80
2018-05-25T22:04:22.149Z,54.20
2018-05-25T22:06:25.321Z,54.30
2018-05-25T22:08:28.471Z,54.20
2018-05-25T22:10:31.623Z,54.30
2018-05-25T22:12:34.817Z,54.40
2018-05-25T22:14:38.769Z,54.40
2018-05-25T22:16:42.042Z,54.40
2018-05-25T22:18:45.174Z,54.40
2018-05-25T22:20:48.319Z,54.40
2018-05-25T22:22:51.509Z,54.40
2018-05-25T22:24:54.674Z,54.40
2018-05-25T22:26:57.846Z,54.30
2018-05-25T22:29:01.004Z,54.40
2018-05-25T22:31:04.915Z,55.20
2018-05-25T22:33:08.085Z,55.30
2018-05-25T22:35:11.284Z,55.00
2018-05-25T22:37:14.467Z,54.80
2018-05-25T22:39:17.627Z,54.70
2018-05-25T22:41:20.771Z,54.80
2018-05-25T22:43:24.765Z,54.80
2018-05-25T22:45:27.915Z,54.80
2018-05-25T22:47:31.785Z,55.50
2018-05-25T22:49:34.935Z,55.00
2018-05-25T22:51:38.906Z,54.80
2018-05-25T22:53:42.059Z,54.80
2018-05-25T22:55:45.982Z,54.80
2018-05-25T22:57:49.940Z,55.00
2018-05-25T22:59:53.098Z,54.80
2018-05-25T23:01:56.291Z,55.40
2018-05-25T23:03:59.446Z,54.80
2018-05-25T23:06:03.359Z,54.80
2018-05-25T23:08:07.309Z,54.90
2018-05-25T23:10:10.480Z,54.70
2018-05-25T23:12:14.419Z,54.80
2018-05-25T23:14:17.563Z,54.80
2018-05-25T23:16:20.724Z,54.90
2018-05-25T23:18:24.700Z,54.30
2018-05-25T23:20:27.856Z,54.70
2018-05-25T23:22:31.796Z,54.80
2018-05-25T23:24:34.977Z,54.70
2018-05-25T23:26:38.166Z,54.70
2018-05-25T23:28:41.343Z,54.80
2018-05-25T23:30:44.491Z,54.90
2018-05-25T23:32:47.675Z,54.90
2018-05-25T23:34:50.831Z,55.00
2018-05-25T23:36:55.528Z,55.00
2018-05-25T23:38:58.675Z,54.90
2018-05-25T23:41:01.844Z,55.00
2018-05-25T23:43:05.027Z,55.00
2018-05-25T23:45:08.948Z,55.00
2018-05-25T23:47:12.896Z,55.10
2018-05-25T23:49:16.066Z,55.00
2018-05-25T23:51:19.985Z,56.50
2018-05-25T23:53:23.158Z,55.70
2018-05-25T23:55:26.311Z,55.90
2018-05-25T23:57:30.262Z,55.60
2018-05-25T23:59:33.416Z,55.50
